createdAt,value
2023-02-02T00:00:40.429Z,96298.75
2023-02-02T00:01:42.889Z,96294.16
2023-02-02T00:02:44.653Z,96306.03
2023-02-02T00:03:46.622Z,96303.34
2023-02-02T00:04:48.671Z,96291.44
2023-02-02T00:05:53.850Z,96294.16
2023-02-02T00:06:59.475Z,96302.78
2023-02-02T00:08:01.575Z,96294.69
2023-02-02T00:09:03.902Z,96293.88
2023-02-02T00:10:06.262Z,96298.47
2023-02-02T00:11:08.158Z,96291.72
2023-02-02T00:12:10.225Z,96286.56
2023-02-02T00:13:13.325Z,96283.88
2023-02-02T00:14:15.134Z,96279.31
2023-02-02T00:15:19.019Z,96284.97
2023-02-02T00:16:26.543Z,96296.84
2023-02-02T00:17:28.514Z,96278.22
2023-02-02T00:18:30.253Z,96287.94
2023-02-02T00:19:32.388Z,96275.25
2023-02-02T00:20:36.923Z,96283.34
2023-02-02T00:21:38.975Z,96280.13
2023-02-02T00:22:40.807Z,96280.91
2023-02-02T00:23:42.815Z,96285.53
2023-02-02T00:24:44.756Z,96288.75
2023-02-02T00:25:49.895Z,96281.19
2023-02-02T00:26:57.545Z,96290.38
2023-02-02T00:27:59.766Z,96292.56
2023-02-02T00:29:01.930Z,96292.00
2023-02-02T00:30:03.984Z,96276.06
2023-02-02T00:31:05.733Z,96282.81
2023-02-02T00:32:08.637Z,96283.63
2023-02-02T00:33:10.513Z,96277.94
2023-02-02T00:34:13.858Z,96283.91
2023-02-02T00:35:15.862Z,96276.31
2023-02-02T00:36:19.880Z,96283.34
2023-02-02T00:37:22.010Z,96275.25
2023-02-02T00:38:23.943Z,96269.03
2023-02-02T00:39:26.442Z,96279.00
2023-02-02T00:40:28.440Z,96277.69
2023-02-02T00:41:30.257Z,96275.25
2023-02-02T00:42:32.015Z,96272.78
2023-02-02T00:43:34.333Z,96270.34
2023-02-02T00:44:54.781Z,96269.00
2023-02-02T00:45:57.648Z,96260.38
2023-02-02T00:46:59.646Z,96271.16
2023-02-02T00:48:02.219Z,96277.94
2023-02-02T00:49:03.799Z,96279.28
2023-02-02T00:50:06.610Z,96278.47
2023-02-02T00:51:09.261Z,96277.13
2023-02-02T00:52:11.229Z,96277.94
2023-02-02T00:53:13.375Z,96283.09
2023-02-02T00:54:15.641Z,96280.66
2023-02-02T00:55:18.156Z,96273.88
2023-02-02T00:56:21.044Z,96280.91
2023-02-02T00:57:23.632Z,96286.88
2023-02-02T00:58:25.741Z,96264.69
2023-02-02T00:59:27.462Z,96280.13
2023-02-02T01:00:29.303Z,96271.50
2023-02-02T01:01:31.054Z,96273.63
2023-02-02T01:02:34.210Z,96277.69
2023-02-02T01:03:36.656Z,96279.03
2023-02-02T01:04:40.728Z,96276.31
2023-02-02T01:05:43.103Z,96284.19
2023-02-02T01:06:45.607Z,96283.94
2023-02-02T01:07:49.072Z,96279.06
2023-02-02T01:08:51.562Z,96292.56
2023-02-02T01:09:53.900Z,96287.69
2023-02-02T01:11:00.892Z,96295.25
2023-02-02T01:12:03.536Z,96282.81
2023-02-02T01:13:06.542Z,96296.88
2023-02-02T01:14:08.665Z,96286.56
2023-02-02T01:15:12.053Z,96281.72
2023-02-02T01:16:14.801Z,96290.66
2023-02-02T01:17:17.460Z,96288.75
2023-02-02T01:18:19.338Z,96279.81
2023-02-02T01:19:21.398Z,96274.66
2023-02-02T01:20:24.546Z,96276.84
2023-02-02T01:21:26.892Z,96283.59
2023-02-02T01:22:28.790Z,96283.91
2023-02-02T01:23:32.745Z,96303.09
2023-02-02T01:24:34.496Z,96293.09
2023-02-02T01:25:38.698Z,96296.84
2023-02-02T01:26:41.126Z,96295.78
2023-02-02T01:27:43.534Z,96299.59
2023-02-02T01:28:45.483Z,96294.69
2023-02-02T01:29:47.287Z,96282.28
2023-02-02T01:30:49.469Z,96294.19
2023-02-02T01:31:51.440Z,96295.53
2023-02-02T01:32:54.693Z,96290.94
2023-02-02T01:33:56.754Z,96291.47
2023-02-02T01:34:58.622Z,96295.00
2023-02-02T01:36:07.231Z,96302.00
2023-02-02T01:37:10.495Z,96301.47
2023-02-02T01:38:13.118Z,96288.22
2023-02-02T01:39:15.069Z,96295.00
2023-02-02T01:40:17.402Z,96293.38
2023-02-02T01:41:24.172Z,96286.63
2023-02-02T01:42:25.994Z,96290.13
2023-02-02T01:43:45.681Z,96280.66
2023-02-02T01:45:14.755Z,96279.84
2023-02-02T01:46:25.869Z,96292.81
2023-02-02T01:47:32.391Z,96281.72
2023-02-02T01:48:35.730Z,96281.72
2023-02-02T01:49:38.613Z,96284.44
2023-02-02T01:50:41.662Z,96281.72
2023-02-02T01:51:54.498Z,96281.50
2023-02-02T01:53:00.529Z,96290.69
2023-02-02T01:54:04.115Z,96280.41
2023-02-02T01:55:10.131Z,96281.72
2023-02-02T01:56:17.658Z,96286.63
2023-02-02T01:57:26.820Z,96274.47
2023-02-02T01:58:34.646Z,96282.81
2023-02-02T01:59:36.524Z,96266.59
2023-02-02T02:00:40.092Z,96277.41
2023-02-02T02:01:42.344Z,96285.81
2023-02-02T02:02:46.897Z,96278.50
2023-02-02T02:03:49.968Z,96277.72
2023-02-02T02:04:53.007Z,96273.09
2023-02-02T02:06:08.660Z,96284.72
2023-02-02T02:07:11.007Z,96277.72
2023-02-02T02:08:26.232Z,96266.59
2023-02-02T02:09:27.892Z,96279.59
2023-02-02T02:16:32.870Z,96268.50
2023-02-02T02:17:53.712Z,96275.53
2023-02-02T02:19:14.222Z,96272.56
2023-02-02T02:21:09.463Z,96263.91
2023-02-02T02:22:33.189Z,96261.75
2023-02-02T02:24:31.228Z,96262.28
2023-02-02T02:25:58.026Z,96277.16
2023-02-02T02:27:33.957Z,96269.28
2023-02-02T02:29:00.335Z,96260.94
2023-02-02T02:30:27.178Z,96255.78
2023-02-02T02:31:31.711Z,96261.75
2023-02-02T02:32:51.214Z,96250.38
2023-02-02T02:34:10.064Z,96254.41
2023-02-02T02:35:25.238Z,96256.03
2023-02-02T02:36:45.637Z,96246.03
2023-02-02T02:37:57.221Z,96250.63
2023-02-02T02:39:12.056Z,96260.09
2023-02-02T02:40:28.175Z,96257.94
2023-02-02T02:41:35.801Z,96275.25
2023-02-02T02:42:43.872Z,96263.34
2023-02-02T02:44:01.957Z,96262.25
2023-02-02T02:45:05.053Z,96263.63
2023-02-02T02:46:09.468Z,96262.81
2023-02-02T02:47:11.640Z,96270.91
2023-02-02T02:48:13.777Z,96264.44
2023-02-02T02:49:15.515Z,96260.63
2023-02-02T02:50:18.979Z,96270.91
2023-02-02T02:51:41.510Z,96264.16
2023-02-02T02:52:45.623Z,96271.47
2023-02-02T02:53:49.129Z,96264.16
2023-02-02T02:54:55.523Z,96276.59
2023-02-02T02:56:20.480Z,96274.69
2023-02-02T02:57:49.950Z,96269.31
2023-02-02T02:59:06.331Z,96265.53
2023-02-02T03:00:17.192Z,96274.19
2023-02-02T03:01:28.946Z,96271.75
2023-02-02T03:02:33.266Z,96266.59
2023-02-02T03:04:07.038Z,96271.50
2023-02-02T03:05:16.143Z,96260.13
2023-02-02T03:06:25.068Z,96256.63
2023-02-02T03:07:30.494Z,96253.41
2023-02-02T03:08:37.048Z,96255.56
2023-02-02T03:09:42.388Z,96255.56
2023-02-02T03:10:45.740Z,96246.09
2023-02-02T03:11:47.637Z,96251.78
2023-02-02T03:12:51.412Z,96256.38
2023-02-02T03:13:53.921Z,96260.97
2023-02-02T03:14:56.013Z,96260.16
2023-02-02T03:15:58.596Z,96259.06
2023-02-02T03:17:03.077Z,96257.47
2023-02-02T03:18:04.875Z,96254.22
2023-02-02T03:19:07.668Z,96264.78
2023-02-02T03:20:10.945Z,96255.84
2023-02-02T03:21:13.389Z,96254.78
2023-02-02T03:22:15.243Z,96244.50
2023-02-02T03:23:18.779Z,96259.13
2023-02-02T03:24:20.673Z,96258.31
2023-02-02T03:25:24.195Z,96247.78
2023-02-02T03:26:29.288Z,96249.94
2023-02-02T03:27:31.193Z,96247.50
2023-02-02T03:28:33.494Z,96245.84
2023-02-02T03:29:35.684Z,96252.59
2023-02-02T03:30:40.193Z,96254.50
2023-02-02T03:31:43.418Z,96242.06
2023-02-02T03:32:46.059Z,96241.25
2023-02-02T03:33:48.571Z,96246.66
2023-02-02T03:34:50.554Z,96249.88
2023-02-02T03:35:54.447Z,96246.09
2023-02-02T03:36:56.622Z,96251.78
2023-02-02T03:37:58.466Z,96253.94
2023-02-02T03:39:00.283Z,96252.03
2023-02-02T03:40:02.106Z,96245.56
2023-02-02T03:41:05.518Z,96253.41
2023-02-02T03:42:07.291Z,96239.34
2023-02-02T03:43:09.255Z,96245.56
2023-02-02T03:44:11.426Z,96232.31
2023-02-02T03:45:13.891Z,96227.97
2023-02-02T03:46:15.571Z,96230.97
2023-02-02T03:47:17.240Z,96243.41
2023-02-02T03:48:19.041Z,96235.81
2023-02-02T03:49:20.971Z,96252.28
2023-02-02T03:50:23.149Z,96250.69
2023-02-02T03:51:25.178Z,96252.81
2023-02-02T03:52:26.953Z,96245.25
2023-02-02T03:53:28.953Z,96244.22
2023-02-02T03:54:31.161Z,96247.97
2023-02-02T03:55:33.259Z,96246.63
2023-02-02T03:56:35.867Z,96249.03
2023-02-02T03:57:41.283Z,96247.13
2023-02-02T03:58:42.925Z,96237.66
2023-02-02T03:59:45.167Z,96255.50
2023-02-02T04:00:46.932Z,96244.44
2023-02-02T04:01:48.922Z,96247.66
2023-02-02T04:02:50.927Z,96252.25
2023-02-02T04:03:52.968Z,96232.81
2023-02-02T04:04:55.088Z,96247.66
2023-02-02T04:05:56.944Z,96244.97
2023-02-02T04:06:59.146Z,96241.75
2023-02-02T04:08:01.187Z,96245.25
2023-02-02T04:09:03.247Z,96256.06
2023-02-02T04:10:06.417Z,96257.16
2023-02-02T04:11:11.270Z,96255.00
2023-02-02T04:12:13.660Z,96255.81
2023-02-02T04:13:17.616Z,96261.47
2023-02-02T04:14:19.725Z,96268.78
2023-02-02T04:15:21.403Z,96268.25
2023-02-02T04:16:23.243Z,96261.75
2023-02-02T04:17:25.169Z,96266.59
2023-02-02T04:18:27.009Z,96267.41
2023-02-02T04:19:30.089Z,96260.38
2023-02-02T04:20:32.699Z,96260.09
2023-02-02T04:21:35.847Z,96274.69
2023-02-02T04:22:37.582Z,96260.91
2023-02-02T04:23:39.329Z,96255.78
2023-02-02T04:24:41.081Z,96265.75
2023-02-02T04:25:50.149Z,96272.50
2023-02-02T04:26:52.050Z,96262.53
2023-02-02T04:27:54.211Z,96267.13
2023-02-02T04:28:56.306Z,96266.56
2023-02-02T04:29:58.004Z,96268.75
2023-02-02T04:31:00.181Z,96271.72
2023-02-02T04:32:01.949Z,96283.34
2023-02-02T04:33:03.893Z,96278.22
2023-02-02T04:34:05.753Z,96285.53
2023-02-02T04:35:08.078Z,96269.03
2023-02-02T04:36:10.788Z,96255.78
2023-02-02T04:37:13.501Z,96277.38
2023-02-02T04:38:15.213Z,96269.81
2023-02-02T04:39:17.281Z,96282.28
2023-02-02T04:40:19.473Z,96277.94
2023-02-02T04:41:22.814Z,96277.38
2023-02-02T04:42:24.688Z,96278.22
2023-02-02T04:43:26.802Z,96271.19
2023-02-02T04:44:28.761Z,96275.00
2023-02-02T04:45:30.653Z,96276.59
2023-02-02T04:46:32.808Z,96287.41
2023-02-02T04:47:34.629Z,96272.53
2023-02-02T04:48:36.400Z,96285.78
2023-02-02T04:49:38.433Z,96291.19
2023-02-02T04:50:40.432Z,96291.47
2023-02-02T04:51:42.131Z,96282.00
2023-02-02T04:52:47.373Z,96288.19
2023-02-02T04:53:50.258Z,96286.31
2023-02-02T04:54:52.487Z,96283.34
2023-02-02T04:55:54.230Z,96278.50
2023-02-02T04:56:56.007Z,96275.81
2023-02-02T04:57:57.824Z,96283.91
2023-02-02T04:58:59.800Z,96287.13
2023-02-02T05:00:01.764Z,96296.34
2023-02-02T05:01:18.777Z,96287.94
2023-02-02T05:02:21.003Z,96298.22
2023-02-02T05:03:23.013Z,96290.94
2023-02-02T05:04:25.163Z,96290.94
2023-02-02T05:05:27.186Z,96294.72
2023-02-02T05:06:28.944Z,96293.09
2023-02-02T05:07:31.815Z,96301.22
2023-02-02T05:08:34.296Z,96301.47
2023-02-02T05:09:36.099Z,96287.69
2023-02-02T05:10:41.232Z,96304.41
2023-02-02T05:11:44.769Z,96293.06
2023-02-02T05:12:46.820Z,96309.03
2023-02-02T05:13:50.796Z,96295.78
2023-02-02T05:14:53.195Z,96304.69
2023-02-02T05:15:55.776Z,96301.72
2023-02-02T05:16:57.376Z,96306.31
2023-02-02T05:17:59.134Z,96300.34
2023-02-02T05:19:01.612Z,96296.00
2023-02-02T05:20:03.492Z,96309.53
2023-02-02T05:21:05.551Z,96314.97
2023-02-02T05:22:07.258Z,96320.63
2023-02-02T05:23:08.927Z,96298.97
2023-02-02T05:24:11.501Z,96308.19
2023-02-02T05:25:13.182Z,96316.06
2023-02-02T05:26:17.601Z,96311.97
2023-02-02T05:27:19.505Z,96318.19
2023-02-02T05:28:22.183Z,96303.56
2023-02-02T05:29:25.815Z,96304.13
2023-02-02T05:30:28.234Z,96311.47
2023-02-02T05:31:31.417Z,96300.34
2023-02-02T05:32:33.213Z,96313.81
2023-02-02T05:33:35.329Z,96300.03
2023-02-02T05:34:37.478Z,96302.19
2023-02-02T05:35:39.794Z,96307.63
2023-02-02T05:36:41.831Z,96315.22
2023-02-02T05:37:44.087Z,96315.75
2023-02-02T05:38:46.428Z,96313.06
2023-02-02T05:39:50.301Z,96311.69
2023-02-02T05:40:52.269Z,96302.50
2023-02-02T05:41:54.389Z,96298.97
2023-02-02T05:42:56.427Z,96319.00
2023-02-02T05:44:02.889Z,96316.28
2023-02-02T05:45:05.462Z,96305.72
2023-02-02T05:46:07.152Z,96313.31
2023-02-02T05:47:09.648Z,96309.81
2023-02-02T05:48:14.692Z,96314.63
2023-02-02T05:49:17.600Z,96320.06
2023-02-02T05:50:19.286Z,96324.94
2023-02-02T05:51:27.135Z,96316.28
2023-02-02T05:52:29.823Z,96318.47
2023-02-02T05:53:32.316Z,96316.84
2023-02-02T05:54:35.656Z,96301.16
2023-02-02T05:55:37.814Z,96322.78
2023-02-02T05:56:39.754Z,96324.16
2023-02-02T05:57:42.154Z,96334.72
2023-02-02T05:58:44.754Z,96324.47
2023-02-02T05:59:48.218Z,96326.09
2023-02-02T06:00:50.453Z,96336.91
2023-02-02T06:01:53.054Z,96326.34
2023-02-02T06:02:54.737Z,96327.16
2023-02-02T06:03:57.013Z,96333.13
2023-02-02T06:04:58.772Z,96331.50
2023-02-02T06:06:00.625Z,96333.66
2023-02-02T06:07:02.557Z,96330.38
2023-02-02T06:08:04.299Z,96330.66
2023-02-02T06:09:06.995Z,96332.28
2023-02-02T06:10:09.297Z,96328.22
2023-02-02T06:11:12.312Z,96327.16
2023-02-02T06:12:14.158Z,96332.81
2023-02-02T06:13:16.243Z,96336.59
2023-02-02T06:14:18.072Z,96334.72
2023-02-02T06:15:19.891Z,96334.72
2023-02-02T06:16:21.718Z,96333.91
2023-02-02T06:17:23.472Z,96335.22
2023-02-02T06:18:25.165Z,96332.00
2023-02-02T06:19:27.043Z,96326.59
2023-02-02T06:20:29.539Z,96342.00
2023-02-02T06:21:32.036Z,96333.88
2023-02-02T06:22:33.861Z,96325.22
2023-02-02T06:23:36.112Z,96324.94
2023-02-02T06:24:38.270Z,96344.44
2023-02-02T06:25:40.377Z,96338.22
2023-02-02T06:26:42.198Z,96342.84
2023-02-02T06:27:46.352Z,96348.75
2023-02-02T06:28:51.357Z,96324.97
2023-02-02T06:29:53.123Z,96343.66
2023-02-02T06:30:55.290Z,96349.31
2023-02-02T06:32:00.019Z,96352.03
2023-02-02T06:33:02.112Z,96345.81
2023-02-02T06:34:04.162Z,96346.38
2023-02-02T06:35:06.970Z,96352.03
2023-02-02T06:36:09.087Z,96357.97
2023-02-02T06:37:10.838Z,96366.13
2023-02-02T06:38:14.662Z,96362.06
2023-02-02T06:39:16.387Z,96354.72
2023-02-02T06:40:18.334Z,96346.38
2023-02-02T06:41:21.010Z,96354.47
2023-02-02T06:42:22.642Z,96359.31
2023-02-02T06:43:24.406Z,96362.56
2023-02-02T06:44:28.003Z,96345.56
2023-02-02T06:45:30.809Z,96355.28
2023-02-02T06:46:32.632Z,96354.72
2023-02-02T06:47:34.452Z,96352.88
2023-02-02T06:48:36.634Z,96347.69
2023-02-02T06:49:38.452Z,96359.88
2023-02-02T06:50:40.713Z,96366.91
2023-02-02T06:51:42.972Z,96363.41
2023-02-02T06:52:49.510Z,96354.50
2023-02-02T06:53:51.636Z,96350.16
2023-02-02T06:54:53.856Z,96368.81
2023-02-02T06:56:04.827Z,96362.88
2023-02-02T06:57:07.067Z,96366.91
2023-02-02T06:58:09.788Z,96380.97
2023-02-02T06:59:11.503Z,96373.69
2023-02-02T07:00:14.579Z,96374.22
2023-02-02T07:01:16.506Z,96366.63
2023-02-02T07:02:18.623Z,96374.50
2023-02-02T07:03:21.498Z,96369.59
2023-02-02T07:04:24.360Z,96368.78
2023-02-02T07:05:30.562Z,96370.69
2023-02-02T07:06:33.417Z,96380.69
2023-02-02T07:07:35.988Z,96376.06
2023-02-02T07:08:38.530Z,96379.31
2023-02-02T07:09:41.038Z,96384.72
2023-02-02T07:11:12.735Z,96380.94
2023-02-02T07:12:06.349Z,96387.19
2023-02-02T07:13:08.202Z,96385.56
2023-02-02T07:14:12.201Z,96386.91
2023-02-02T07:15:16.144Z,96379.06
2023-02-02T07:16:19.124Z,96375.53
2023-02-02T07:17:21.270Z,96375.53
2023-02-02T07:18:23.441Z,96381.75
2023-02-02T07:19:25.470Z,96380.13
2023-02-02T07:20:27.903Z,96385.81
2023-02-02T07:21:35.771Z,96378.75
2023-02-02T07:22:41.865Z,96371.19
2023-02-02T07:23:44.102Z,96380.66
2023-02-02T07:24:46.667Z,96377.94
2023-02-02T07:25:48.438Z,96378.50
2023-02-02T07:26:50.210Z,96373.09
2023-02-02T07:27:54.995Z,96375.25
2023-02-02T07:28:57.032Z,96372.00
2023-02-02T07:29:59.024Z,96381.75
2023-02-02T07:31:01.459Z,96378.50
2023-02-02T07:32:03.325Z,96384.44
2023-02-02T07:33:05.042Z,96383.94
2023-02-02T07:34:07.365Z,96381.75
2023-02-02T07:35:09.570Z,96382.81
2023-02-02T07:36:12.845Z,96383.38
2023-02-02T07:37:15.204Z,96384.72
2023-02-02T07:38:17.365Z,96378.75
2023-02-02T07:39:19.173Z,96377.13
2023-02-02T07:40:21.797Z,96378.75
2023-02-02T07:41:23.790Z,96375.25
2023-02-02T07:42:25.699Z,96378.22
2023-02-02T07:43:27.435Z,96381.75
2023-02-02T07:44:29.825Z,96382.81
2023-02-02T07:45:31.645Z,96380.91
2023-02-02T07:46:33.429Z,96370.06
2023-02-02T07:47:35.456Z,96373.63
2023-02-02T07:48:37.451Z,96375.25
2023-02-02T07:49:39.401Z,96388.22
2023-02-02T07:50:42.342Z,96383.91
2023-02-02T07:51:47.637Z,96385.00
2023-02-02T07:52:49.759Z,96383.09
2023-02-02T07:53:53.723Z,96394.19
2023-02-02T07:55:08.947Z,96399.31
2023-02-02T07:56:23.695Z,96396.63
2023-02-02T07:57:25.588Z,96395.28
2023-02-02T07:58:27.747Z,96398.00
2023-02-02T07:59:32.216Z,96393.38
2023-02-02T08:00:34.474Z,96400.41
2023-02-02T08:01:36.707Z,96399.06
2023-02-02T08:02:38.541Z,96395.50
2023-02-02T08:03:40.880Z,96392.81
2023-02-02T08:04:43.028Z,96390.41
2023-02-02T08:05:45.460Z,96388.25
2023-02-02T08:06:47.652Z,96391.22
2023-02-02T08:07:49.915Z,96396.13
2023-02-02T08:08:52.579Z,96402.34
2023-02-02T08:09:55.053Z,96396.94
2023-02-02T08:10:57.000Z,96403.69
2023-02-02T08:12:01.878Z,96404.78
2023-02-02T08:13:03.873Z,96396.63
2023-02-02T08:14:06.462Z,96409.09
2023-02-02T08:15:09.632Z,96412.88
2023-02-02T08:16:13.175Z,96418.59
2023-02-02T08:17:15.263Z,96413.16
2023-02-02T08:18:17.125Z,96410.97
2023-02-02T08:19:19.275Z,96417.47
2023-02-02T08:20:21.067Z,96418.03
2023-02-02T08:21:22.966Z,96432.63
2023-02-02T08:22:24.724Z,96422.91
2023-02-02T08:23:27.592Z,96419.91
2023-02-02T08:24:29.358Z,96429.13
2023-02-02T08:25:31.300Z,96415.03
2023-02-02T08:26:33.989Z,96417.47
2023-02-02T08:27:37.876Z,96428.28
2023-02-02T08:28:40.983Z,96427.75
2023-02-02T08:29:44.316Z,96419.59
2023-02-02T08:30:46.415Z,96422.28
2023-02-02T08:31:48.859Z,96423.13
2023-02-02T08:32:50.887Z,96429.59
2023-02-02T08:33:54.747Z,96426.66
2023-02-02T08:34:57.290Z,96432.59
2023-02-02T08:35:59.031Z,96433.69
2023-02-02T08:37:02.003Z,96423.16
2023-02-02T08:38:05.461Z,96430.19
2023-02-02T08:39:10.899Z,96433.69
2023-02-02T08:40:14.126Z,96435.06
2023-02-02T08:41:18.703Z,96429.94
2023-02-02T08:42:22.399Z,96432.63
2023-02-02T08:43:25.592Z,96426.41
2023-02-02T08:44:39.658Z,96434.53
2023-02-02T08:46:01.140Z,96442.09
2023-02-02T08:47:09.255Z,96439.94
2023-02-02T08:48:15.783Z,96434.25
2023-02-02T08:49:20.888Z,96441.00
2023-02-02T08:50:24.928Z,96446.69
2023-02-02T08:51:26.750Z,96439.13
2023-02-02T08:52:28.620Z,96433.16
2023-02-02T08:53:30.860Z,96438.03
2023-02-02T08:54:33.326Z,96446.66
2023-02-02T08:55:35.206Z,96435.56
2023-02-02T08:56:37.403Z,96437.47
2023-02-02T08:57:39.595Z,96438.28
2023-02-02T08:58:45.875Z,96443.19
2023-02-02T08:59:48.320Z,96434.50
2023-02-02T09:00:50.303Z,96442.38
2023-02-02T09:01:52.628Z,96443.69
2023-02-02T09:02:55.435Z,96440.72
2023-02-02T09:04:06.740Z,96448.56
2023-02-02T09:05:09.426Z,96449.41
2023-02-02T09:06:13.773Z,96444.50
2023-02-02T09:07:15.590Z,96450.19
2023-02-02T09:08:17.433Z,96440.16
2023-02-02T09:09:19.280Z,96446.94
2023-02-02T09:10:21.938Z,96448.28
2023-02-02T09:11:23.595Z,96450.97
2023-02-02T09:12:25.693Z,96457.72
2023-02-02T09:13:27.700Z,96450.97
2023-02-02T09:14:29.442Z,96452.88
2023-02-02T09:15:31.636Z,96457.47
2023-02-02T09:16:34.656Z,96460.44
2023-02-02T09:17:36.700Z,96461.25
2023-02-02T09:18:40.989Z,96457.44
2023-02-02T09:19:43.959Z,96458.53
2023-02-02T09:20:46.452Z,96454.16
2023-02-02T09:21:50.888Z,96463.66
2023-02-02T09:22:56.638Z,96453.34
2023-02-02T09:23:59.629Z,96454.16
2023-02-02T09:25:01.657Z,96452.03
2023-02-02T09:26:21.803Z,96453.94
2023-02-02T09:27:24.523Z,96448.00
2023-02-02T09:28:26.495Z,96455.81
2023-02-02T09:29:28.309Z,96447.69
2023-02-02T09:30:31.805Z,96446.63
2023-02-02T09:31:36.448Z,96449.63
2023-02-02T09:32:38.701Z,96455.84
2023-02-02T09:33:40.891Z,96455.03
2023-02-02T09:34:43.225Z,96457.19
2023-02-02T09:35:46.985Z,96451.50
2023-02-02T09:36:49.395Z,96455.84
2023-02-02T09:37:51.440Z,96456.94
2023-02-02T09:38:53.874Z,96454.19
2023-02-02T09:39:56.031Z,96447.44
2023-02-02T09:40:57.713Z,96442.31
2023-02-02T09:42:49.501Z,96460.16
2023-02-02T09:44:04.527Z,96467.75
2023-02-02T09:45:17.777Z,96466.97
2023-02-02T09:46:36.928Z,96465.34
2023-02-02T09:47:55.754Z,96476.16
2023-02-02T09:48:59.259Z,96475.88
2023-02-02T09:50:05.438Z,96478.03
2023-02-02T09:51:13.713Z,96477.22
2023-02-02T09:53:06.403Z,96469.38
2023-02-02T09:54:30.439Z,96478.59
2023-02-02T09:55:35.759Z,96479.38
2023-02-02T09:56:43.850Z,96478.56
2023-02-02T09:57:57.304Z,96481.81
2023-02-02T09:59:18.906Z,96483.97
2023-02-02T10:00:32.041Z,96490.50
2023-02-02T10:01:42.497Z,96484.53
2023-02-02T10:02:46.345Z,96478.31
2023-02-02T10:04:09.036Z,96482.38
2023-02-02T10:05:23.255Z,96475.88
2023-02-02T10:06:40.434Z,96469.63
2023-02-02T10:07:46.216Z,96463.66
2023-02-02T10:09:13.141Z,96482.88
2023-02-02T10:10:38.305Z,96482.06
2023-02-02T10:12:05.545Z,96480.44
2023-02-02T10:13:13.636Z,96486.91
2023-02-02T10:14:31.822Z,96483.13
2023-02-02T10:15:45.010Z,96486.38
2023-02-02T10:16:52.496Z,96485.28
2023-02-02T10:18:11.739Z,96490.16
2023-02-02T10:19:15.588Z,96488.78
2023-02-02T10:21:02.490Z,96494.22
2023-02-02T10:22:15.465Z,96494.50
2023-02-02T10:24:02.916Z,96499.63
2023-02-02T10:25:05.065Z,96494.47
2023-02-02T10:26:25.425Z,96499.84
2023-02-02T10:28:04.929Z,96492.78
2023-02-02T10:29:25.215Z,96490.38
2023-02-02T10:31:01.142Z,96493.59
2023-02-02T10:32:27.229Z,96492.50
2023-02-02T10:33:39.488Z,96472.53
2023-02-02T10:35:13.162Z,96477.94
2023-02-02T10:36:40.515Z,96492.88
2023-02-02T10:38:08.178Z,96456.03
2023-02-02T10:39:21.113Z,96487.19
2023-02-02T10:40:27.350Z,96489.34
2023-02-02T10:41:52.764Z,96477.44
2023-02-02T10:43:42.914Z,96482.78
2023-02-02T10:44:54.816Z,96480.63
2023-02-02T10:46:01.804Z,96480.88
2023-02-02T10:47:05.791Z,96473.88
2023-02-02T10:48:23.094Z,96477.38
2023-02-02T10:49:42.764Z,96462.22
2023-02-02T10:50:49.116Z,96473.06
2023-02-02T10:52:07.924Z,96474.16
2023-02-02T10:53:15.438Z,96472.53
2023-02-02T10:54:57.372Z,96474.19
2023-02-02T10:56:12.385Z,96475.25
2023-02-02T10:57:19.984Z,96467.38
2023-02-02T10:58:38.415Z,96466.03
2023-02-02T10:59:53.154Z,96467.91
2023-02-02T11:00:55.243Z,96468.16
2023-02-02T11:02:08.682Z,96464.38
2023-02-02T11:03:20.411Z,96471.41
2023-02-02T11:04:41.933Z,96465.66
2023-02-02T11:06:02.931Z,96469.44
2023-02-02T11:07:07.466Z,96473.78
2023-02-02T11:08:14.714Z,96465.91
2023-02-02T11:09:29.110Z,96472.38
2023-02-02T11:10:32.540Z,96467.81
2023-02-02T11:11:39.874Z,96470.53
2023-02-02T11:12:46.901Z,96473.78
2023-02-02T11:14:13.633Z,96474.31
2023-02-02T11:15:30.067Z,96480.00
2023-02-02T11:16:42.701Z,96478.09
2023-02-02T11:17:45.581Z,96485.13
2023-02-02T11:18:48.857Z,96486.44
2023-02-02T11:19:52.835Z,96489.44
2023-02-02T11:20:55.867Z,96482.41
2023-02-02T11:21:59.443Z,96494.88
2023-02-02T11:23:09.890Z,96486.50
2023-02-02T11:24:20.657Z,96490.53
2023-02-02T11:25:35.613Z,96494.38
2023-02-02T11:26:47.620Z,96478.63
2023-02-02T11:27:50.758Z,96493.25
2023-02-02T11:29:03.317Z,96488.13
2023-02-02T11:30:39.086Z,96498.94
2023-02-02T11:31:44.213Z,96495.09
2023-02-02T11:32:49.993Z,96489.63
2023-02-02T11:33:52.965Z,96477.66
2023-02-02T11:35:08.140Z,96491.22
2023-02-02T11:36:21.855Z,96495.00
2023-02-02T11:37:32.135Z,96486.91
2023-02-02T11:38:36.357Z,96490.16
2023-02-02T11:39:43.231Z,96487.97
2023-02-02T11:40:53.010Z,96481.78
2023-02-02T11:42:13.526Z,96482.59
2023-02-02T11:43:32.550Z,96472.06
2023-02-02T11:44:37.267Z,96486.38
2023-02-02T11:45:43.728Z,96488.00
2023-02-02T11:46:47.606Z,96482.91
2023-02-02T11:47:51.935Z,96500.78
2023-02-02T11:48:58.997Z,96498.63
2023-02-02T11:50:02.797Z,96504.84
2023-02-02T11:51:08.097Z,96494.56
2023-02-02T11:52:18.288Z,96502.66
2023-02-02T11:53:36.886Z,96488.78
2023-02-02T11:54:46.587Z,96501.53
2023-02-02T11:55:48.569Z,96490.41
2023-02-02T11:56:57.793Z,96487.47
2023-02-02T11:58:20.233Z,96491.75
2023-02-02T11:59:29.093Z,96483.63
2023-02-02T12:00:31.381Z,96495.28
2023-02-02T12:01:44.084Z,96483.03
2023-02-02T12:02:49.950Z,96487.16
2023-02-02T12:03:54.319Z,96478.75
2023-02-02T12:05:19.985Z,96489.59
2023-02-02T12:06:25.433Z,96486.06
2023-02-02T12:07:35.910Z,96489.63
2023-02-02T12:08:37.813Z,96482.00
2023-02-02T12:09:40.260Z,96489.31
2023-02-02T12:10:48.029Z,96484.22
2023-02-02T12:12:10.011Z,96490.72
2023-02-02T12:13:30.598Z,96499.44
2023-02-02T12:14:58.518Z,96483.75
2023-02-02T12:16:31.674Z,96488.31
2023-02-02T12:17:45.773Z,96485.88
2023-02-02T12:19:42.903Z,96492.94
2023-02-02T12:21:02.495Z,96489.19
2023-02-02T12:22:12.893Z,96486.47
2023-02-02T12:23:43.467Z,96488.09
2023-02-02T12:25:08.142Z,96492.72
2023-02-02T12:26:37.444Z,96489.69
2023-02-02T12:28:13.596Z,96497.84
2023-02-02T12:29:32.413Z,96495.69
2023-02-02T12:31:00.877Z,96502.72
2023-02-02T12:32:19.622Z,96488.38
2023-02-02T12:33:53.168Z,96479.44
2023-02-02T12:35:09.347Z,96493.25
2023-02-02T12:36:32.449Z,96485.44
2023-02-02T12:37:43.055Z,96483.53
2023-02-02T12:39:04.169Z,96488.13
2023-02-02T12:40:43.657Z,96493.81
2023-02-02T12:42:13.468Z,96484.84
2023-02-02T12:43:38.456Z,96481.59
2023-02-02T12:45:29.215Z,96487.56
2023-02-02T12:46:42.868Z,96484.34
2023-02-02T12:47:53.475Z,96484.63
2023-02-02T12:49:34.507Z,96482.97
2023-02-02T12:50:44.829Z,96497.09
2023-02-02T12:51:59.349Z,96500.31
2023-02-02T12:53:25.504Z,96508.97
2023-02-02T12:54:44.915Z,96507.06
2023-02-02T12:56:08.365Z,96503.81
2023-02-02T12:57:32.449Z,96505.44
2023-02-02T12:58:53.043Z,96508.19
2023-02-02T13:00:20.178Z,96500.09
2023-02-02T13:01:31.384Z,96500.63
2023-02-02T13:03:03.899Z,96492.25
2023-02-02T13:04:22.491Z,96490.91
2023-02-02T13:05:42.501Z,96484.94
2023-02-02T13:07:03.282Z,96487.97
2023-02-02T13:08:27.157Z,96493.38
2023-02-02T13:09:34.431Z,96490.13
2023-02-02T13:10:42.006Z,96483.91
2023-02-02T13:11:54.880Z,96485.78
2023-02-02T13:13:17.384Z,96506.09
2023-02-02T13:14:30.374Z,96491.50